PWSweather.com
Personal Weather Stations
Station Observations
ZBYSOV
ZbysovCZ 66411

ZbysovCZ 66411

Lat: 49.1578064, Lon: 16.3474598

Elevation: 350

Station Type: Davis Vantage Pro 2

http://www.pocasizbysov.info/

High Low Average
Temperature 51.3°F10.7°C 39.6°F4.2°C 44.4°F6.9°C
Dew Point 37.7°F3.2°C 32.0°F0.0°C 35.0°F1.7°C
Winds 21.2 mph 34.1 kmh 2.8 mph 4.5 kmh 11.0 mph NW17.7 kmh NW
Wind Gusts 28.0 mph45.1 kmh 4.0 mph6.4 kmh 15.0 mph24.1 kmh
Humidity 86% 52% 70%
Pressure 29.77 in1008.1 mb 29.39 in995.3 mb -
Precipitation 0.09 in2.3 mm - -
Hour Temp Dew Point Humidity Winds Wind Gusts Pressure Precip Precip Rate Daily Precip Total
12:00 AM 42.1°F5.6°C 39.1°F3.9°C 89% 7.8 mph NNW12.6 kmh NNW 10.0 mph16.1 kmh 29.39 in995.3 mb 0.00 in0.0 mm 0.00 in0.0 mm 0.09 in2.3 mm
02:00 AM 41.5°F5.3°C 37.7°F3.2°C 86% 5.2 mph NW8.4 kmh NW 8.0 mph12.9 kmh 29.39 in995.3 mb 0.00 in0.0 mm 0.00 in0.0 mm 0.09 in2.3 mm
02:30 AM 41.5°F5.3°C 37.1°F2.8°C 84% 2.8 mph NW4.5 kmh NW 4.0 mph6.4 kmh 29.41 in995.9 mb 0.00 in0.0 mm 0.00 in0.0 mm 0.09 in2.3 mm
03:00 AM 41.5°F5.3°C 37.1°F2.8°C 84% 2.8 mph NW4.5 kmh NW 5.0 mph8.0 kmh 29.42 in996.3 mb 0.00 in0.0 mm 0.00 in0.0 mm 0.09 in2.3 mm
05:00 AM 41.4°F5.2°C 35.0°F1.7°C 78% 15.5 mph NW24.9 kmh NW 20.0 mph32.2 kmh 29.43 in996.6 mb 0.00 in0.0 mm 0.00 in0.0 mm 0.09 in2.3 mm
05:30 AM 40.8°F4.9°C 34.5°F1.4°C 78% 7.1 mph NW11.4 kmh NW 10.0 mph16.1 kmh 29.44 in997.0 mb 0.00 in0.0 mm 0.00 in0.0 mm 0.09 in2.3 mm
06:00 AM 40.6°F4.8°C 34.3°F1.3°C 78% 12.9 mph NW20.8 kmh NW 17.0 mph27.4 kmh 29.46 in997.6 mb 0.00 in0.0 mm 0.00 in0.0 mm 0.09 in2.3 mm
08:00 AM 41.2°F5.1°C 34.2°F1.2°C 76% 4.7 mph NW7.6 kmh NW 9.0 mph14.5 kmh 29.49 in998.6 mb 0.00 in0.0 mm 0.00 in0.0 mm 0.09 in2.3 mm
08:30 AM 42.1°F5.6°C 33.4°F0.8°C 71% 18.9 mph WNW30.4 kmh WNW 25.0 mph40.2 kmh 29.51 in999.3 mb 0.00 in0.0 mm 0.00 in0.0 mm 0.09 in2.3 mm
09:00 AM 42.6°F5.9°C 32.8°F0.4°C 68% 12.4 mph WNW20.0 kmh WNW 20.0 mph32.2 kmh 29.51 in999.3 mb 0.00 in0.0 mm 0.00 in0.0 mm 0.09 in2.3 mm
11:00 AM 49.3°F9.6°C 35.6°F2.0°C 59% 10.8 mph WNW17.4 kmh WNW 16.0 mph25.7 kmh 29.52 in999.7 mb 0.00 in0.0 mm 0.00 in0.0 mm 0.09 in2.3 mm
11:30 AM 49.3°F9.6°C 34.7°F1.5°C 57% 14.4 mph NW23.2 kmh NW 22.0 mph35.4 kmh 29.52 in999.7 mb 0.00 in0.0 mm 0.00 in0.0 mm 0.09 in2.3 mm
12:00 PM 49.5°F9.7°C 34.4°F1.3°C 56% 15.2 mph NW24.5 kmh NW 25.0 mph40.2 kmh 29.53 in1000.0 mb 0.00 in0.0 mm 0.00 in0.0 mm 0.09 in2.3 mm
02:00 PM 51.3°F10.7°C 34.3°F1.3°C 52% 18.1 mph NW29.1 kmh NW 25.0 mph40.2 kmh 29.57 in1001.4 mb 0.00 in0.0 mm 0.00 in0.0 mm 0.09 in2.3 mm
02:30 PM 50.7°F10.4°C 34.2°F1.2°C 53% 21.2 mph WNW34.1 kmh WNW 28.0 mph45.1 kmh 29.57 in1001.4 mb 0.00 in0.0 mm 0.00 in0.0 mm 0.09 in2.3 mm
03:00 PM 49.8°F9.9°C 34.3°F1.3°C 55% 15.8 mph WNW25.4 kmh WNW 22.0 mph35.4 kmh 29.59 in1002.0 mb 0.00 in0.0 mm 0.00 in0.0 mm 0.09 in2.3 mm
05:00 PM 48.4°F9.1°C 35.6°F2.0°C 61% 13.5 mph NW21.7 kmh NW 18.0 mph29.0 kmh 29.62 in1003.0 mb 0.00 in0.0 mm 0.00 in0.0 mm 0.09 in2.3 mm
05:30 PM 46.2°F7.9°C 35.9°F2.2°C 67% 8.3 mph W13.4 kmh W 11.0 mph17.7 kmh 29.62 in1003.0 mb 0.00 in0.0 mm 0.00 in0.0 mm 0.09 in2.3 mm
06:00 PM 45.3°F7.4°C 36.1°F2.3°C 70% 6.0 mph NW9.7 kmh NW 10.0 mph16.1 kmh 29.63 in1003.4 mb 0.00 in0.0 mm 0.00 in0.0 mm 0.09 in2.3 mm
08:00 PM 42.1°F5.6°C 36.1°F2.3°C 79% 4.3 mph WNW6.9 kmh WNW 9.0 mph14.5 kmh 29.68 in1005.1 mb 0.00 in0.0 mm 0.00 in0.0 mm 0.09 in2.3 mm
08:30 PM 41.2°F5.1°C 35.2°F1.8°C 79% 9.3 mph WSW15.0 kmh WSW 14.0 mph22.5 kmh 29.70 in1005.8 mb 0.00 in0.0 mm 0.00 in0.0 mm 0.09 in2.3 mm
09:00 PM 41.0°F5.0°C 35.3°F1.8°C 80% 6.0 mph NW9.7 kmh NW 10.0 mph16.1 kmh 29.71 in1006.1 mb 0.00 in0.0 mm 0.00 in0.0 mm 0.09 in2.3 mm
11:30 PM 39.6°F4.2°C 32.0°F0.0°C 74% 6.8 mph NW10.9 kmh NW 12.0 mph19.3 kmh 29.77 in1008.1 mb 0.00 in0.0 mm 0.00 in0.0 mm 0.00 in0.0 mm